Time;durP1;ratioP1;P1;durP2;ratioP2;P2;SDS_P1;SDS_P2;PMS_P1;PMS_P2;Temp;Humidity;BMP_temperature;BMP_pressure;BME280_temperature;BME280_humidity;BME280_pressure;Samples;Min_cycle;Max_cycle;Signal;HPM_P1;HPM_P2
2023/01/04 00:01:54;;;;;;;1.52;0.57;;;0.30;99.90;;;;;;4957600;28;20049;-66
2023/01/04 00:04:21;;;;;;;1.75;0.45;;;0.30;99.90;;;;;;4950966;28;20061;-69
2023/01/04 00:06:48;;;;;;;1.02;0.93;;;0.30;99.90;;;;;;4957013;28;20130;-66
2023/01/04 00:09:15;;;;;;;2.17;0.35;;;0.20;99.90;;;;;;4958182;28;20070;-67
2023/01/04 00:11:42;;;;;;;0.55;0.50;;;0.30;99.90;;;;;;4960164;28;20065;-68
2023/01/04 00:14:10;;;;;;;0.68;0.40;;;0.20;99.90;;;;;;4956014;28;20051;-67
2023/01/04 00:16:37;;;;;;;1.40;0.40;;;0.30;99.90;;;;;;4955701;28;20051;-66
2023/01/04 00:19:04;;;;;;;0.60;0.52;;;0.30;99.90;;;;;;4960885;28;20076;-69
2023/01/04 00:21:31;;;;;;;2.38;0.57;;;0.40;99.90;;;;;;4959326;28;20054;-64
2023/01/04 00:24:00;;;;;;;1.48;0.30;;;0.40;99.90;;;;;;4957680;28;20077;-67
2023/01/04 00:26:32;;;;;;;0.25;0.25;;;0.40;99.90;;;;;;4956945;28;20486;-69
2023/01/04 00:29:04;;;;;;;1.48;0.40;;;0.40;99.90;;;;;;4960904;28;20047;-68
2023/01/04 00:31:32;;;;;;;0.82;0.47;;;0.40;99.90;;;;;;4967679;28;20055;-66
2023/01/04 00:34:01;;;;;;;3.92;1.23;;;0.40;99.90;;;;;;4960454;28;20062;-66
2023/01/04 00:36:29;;;;;;;2.47;0.40;;;0.40;99.90;;;;;;4957708;28;20044;-64
2023/01/04 00:39:08;;;;;;;3.08;1.25;;;0.40;99.90;;;;;;4958094;28;20602;-67
2023/01/04 00:41:37;;;;;;;2.90;0.43;;;0.40;99.90;;;;;;4955543;28;20086;-65
2023/01/04 00:44:24;;;;;;;0.75;0.40;;;0.30;99.90;;;;;;4956501;28;20050;-68
2023/01/04 00:46:51;;;;;;;0.68;0.38;;;0.30;99.90;;;;;;4958716;28;20089;-64
2023/01/04 00:49:19;;;;;;;1.48;0.50;;;0.30;99.90;;;;;;4959959;28;20536;-66
2023/01/04 00:51:46;;;;;;;2.20;0.50;;;0.30;99.90;;;;;;4956044;28;20047;-67
2023/01/04 00:54:14;;;;;;;0.90;0.50;;;0.20;99.90;;;;;;4954782;28;20881;-65
2023/01/04 00:56:41;;;;;;;2.05;0.40;;;0.20;99.90;;;;;;4962976;28;20560;-68
2023/01/04 00:59:10;;;;;;;4.35;0.70;;;0.20;99.90;;;;;;4959412;28;20386;-68
2023/01/04 01:01:38;;;;;;;1.55;0.75;;;0.10;99.90;;;;;;4954802;28;20135;-65
2023/01/04 01:04:06;;;;;;;1.40;1.17;;;0.10;99.90;;;;;;4955782;28;20055;-65
2023/01/04 01:06:33;;;;;;;1.95;0.50;;;0.10;99.90;;;;;;4952066;28;20106;-68
2023/01/04 01:09:00;;;;;;;0.65;0.63;;;0.10;99.90;;;;;;4961896;28;20744;-72
2023/01/04 01:11:28;;;;;;;1.30;0.40;;;0.10;99.90;;;;;;4950468;28;20097;-65
2023/01/04 01:13:56;;;;;;;1.17;0.32;;;0.10;99.90;;;;;;4964945;28;20067;-65
2023/01/04 01:16:23;;;;;;;1.23;0.30;;;0.10;99.90;;;;;;4947661;28;20568;-67
2023/01/04 01:19:10;;;;;;;1.92;0.60;;;0.10;99.90;;;;;;4955937;28;20051;-67
2023/01/04 01:21:38;;;;;;;0.40;0.40;;;0.00;99.90;;;;;;4954436;28;20047;-68
2023/01/04 01:24:05;;;;;;;0.90;0.57;;;0.00;99.90;;;;;;4957190;28;20050;-68
2023/01/04 01:26:32;;;;;;;2.85;0.82;;;0.00;99.90;;;;;;4951962;28;20548;-66
2023/01/04 01:28:59;;;;;;;1.70;0.75;;;-0.10;99.90;;;;;;4959684;28;20420;-69
2023/01/04 01:31:28;;;;;;;2.03;0.47;;;-0.10;99.90;;;;;;4957793;28;20089;-65
2023/01/04 01:33:55;;;;;;;5.38;0.93;;;0.00;99.90;;;;;;4962493;28;20544;-66
2023/01/04 01:36:25;;;;;;;1.90;0.60;;;0.00;99.90;;;;;;4955623;28;20135;-66
2023/01/04 01:38:52;;;;;;;0.90;0.50;;;0.00;99.90;;;;;;4961450;28;20051;-69
2023/01/04 01:41:23;;;;;;;1.38;0.65;;;0.00;99.90;;;;;;4961792;28;20746;-71
2023/01/04 01:43:55;;;;;;;1.25;0.70;;;-0.10;99.90;;;;;;4961935;28;20050;-66
2023/01/04 01:46:25;;;;;;;0.77;0.50;;;-0.10;99.90;;;;;;4960241;28;20051;-65
2023/01/04 01:49:01;;;;;;;1.02;0.63;;;-0.10;99.90;;;;;;4961634;28;20042;-65
2023/01/04 01:51:29;;;;;;;1.35;0.63;;;-0.10;99.90;;;;;;4958237;28;20059;-68
2023/01/04 01:54:05;;;;;;;1.58;0.95;;;0.00;99.90;;;;;;4968454;28;20146;-65
2023/01/04 01:56:36;;;;;;;0.63;0.60;;;0.00;99.90;;;;;;4959697;28;20074;-66
2023/01/04 01:59:03;;;;;;;1.33;0.77;;;-0.10;99.90;;;;;;4959119;28;20182;-65
2023/01/04 02:01:32;;;;;;;4.65;1.88;;;-0.10;99.90;;;;;;4960475;28;20046;-66
2023/01/04 02:04:00;;;;;;;4.53;2.30;;;-0.20;99.90;;;;;;4961378;28;20059;-66
2023/01/04 02:06:32;;;;;;;5.15;3.10;;;-0.20;99.90;;;;;;4959647;28;20150;-66
2023/01/04 02:09:01;;;;;;;4.32;1.35;;;-0.30;99.90;;;;;;4959125;28;20445;-66
2023/01/04 02:11:28;;;;;;;5.78;1.25;;;-0.40;99.90;;;;;;4963770;28;20046;-68
2023/01/04 02:17:05;;;;;;;1.65;1.33;;;-0.50;99.90;;;;;;4952770;28;20547;-69
2023/01/04 02:19:50;;;;;;;1.63;1.08;;;-0.50;99.90;;;;;;4958036;28;20051;-67
2023/01/04 02:22:54;;;;;;;1.02;0.98;;;-0.60;99.90;;;;;;4946929;28;20150;-70
2023/01/04 02:25:58;;;;;;;3.25;1.20;;;-0.60;99.90;;;;;;4959480;28;20066;-66
2023/01/04 02:28:44;;;;;;;2.45;0.90;;;-0.70;99.90;;;;;;4957278;28;20078;-67
2023/01/04 02:31:37;;;;;;;1.27;0.90;;;-0.70;99.90;;;;;;4956328;28;20770;-65
2023/01/04 02:34:43;;;;;;;4.07;0.85;;;-0.80;99.90;;;;;;4960161;28;20567;-69
2023/01/04 02:37:17;;;;;;;1.67;1.02;;;-0.80;99.90;;;;;;4953404;28;20129;-67
2023/01/04 02:40:09;;;;;;;1.90;0.90;;;-0.70;99.90;;;;;;4974815;28;20736;-65
2023/01/04 02:45:27;;;;;;;2.38;0.82;;;-0.60;99.90;;;;;;4954327;28;20142;-69
2023/01/04 02:50:51;;;;;;;1.25;0.80;;;-0.70;99.90;;;;;;4958317;28;20122;-66
2023/01/04 02:53:21;;;;;;;1.25;0.88;;;-0.70;99.90;;;;;;4959819;28;20509;-67
2023/01/04 02:56:17;;;;;;;0.85;0.60;;;-0.70;99.90;;;;;;4953579;28;20062;-66
2023/01/04 02:59:10;;;;;;;0.85;0.68;;;-0.80;99.90;;;;;;4953280;28;20050;-71
2023/01/04 03:08:05;;;;;;;2.08;0.70;;;-0.90;99.90;;;;;;4960741;28;20051;-65
2023/01/04 03:10:46;;;;;;;1.98;0.98;;;-0.90;99.90;;;;;;4958455;28;20055;-68
2023/01/04 03:13:30;;;;;;;1.70;1.05;;;-0.90;99.90;;;;;;4962461;28;20074;-64
2023/01/04 03:16:20;;;;;;;2.47;0.75;;;-1.00;99.90;;;;;;4953648;28;20122;-65
2023/01/04 03:18:51;;;;;;;2.38;0.70;;;-1.00;99.90;;;;;;4954997;28;20055;-71
2023/01/04 03:21:22;;;;;;;1.90;0.80;;;-1.00;99.90;;;;;;4958076;28;20047;-66
2023/01/04 03:36:05;;;;;;;2.15;1.45;;;-1.10;99.90;;;;;;4956561;28;20055;-71
2023/01/04 03:48:31;;;;;;;1.20;1.05;;;-1.20;99.90;;;;;;4934117;28;20142;-66
2023/01/04 03:51:15;;;;;;;2.40;1.20;;;-1.20;99.90;;;;;;4951748;28;20053;-66
2023/01/04 03:54:02;;;;;;;1.23;0.93;;;-1.20;99.90;;;;;;4958833;28;20465;-70
2023/01/04 03:56:31;;;;;;;1.55;1.10;;;-1.20;99.90;;;;;;4952100;28;20047;-65
2023/01/04 03:58:59;;;;;;;1.10;0.90;;;-1.20;99.90;;;;;;4956067;28;20038;-66
2023/01/04 04:01:27;;;;;;;0.80;0.70;;;-1.30;99.90;;;;;;4952359;28;20150;-67
2023/01/04 04:09:26;;;;;;;1.70;1.02;;;-1.30;99.90;;;;;;4960606;28;20087;-67
2023/01/04 04:11:52;;;;;;;3.20;1.67;;;-1.40;99.90;;;;;;4958687;28;20141;-66
2023/01/04 04:14:19;;;;;;;1.45;1.05;;;-1.40;99.90;;;;;;4958875;28;20111;-70
2023/01/04 04:16:46;;;;;;;3.17;0.93;;;-1.30;99.90;;;;;;4951830;28;20393;-66
2023/01/04 04:19:13;;;;;;;1.38;1.25;;;-1.40;99.90;;;;;;4953737;28;20051;-67
2023/01/04 04:21:41;;;;;;;1.08;0.98;;;-1.40;99.90;;;;;;4951746;28;20829;-66
2023/01/04 04:24:16;;;;;;;0.68;0.63;;;-1.50;99.90;;;;;;4960539;28;20185;-66
2023/01/04 04:26:44;;;;;;;1.52;1.08;;;-1.40;99.90;;;;;;4956416;28;20125;-65
2023/01/04 04:29:11;;;;;;;3.35;1.38;;;-1.50;99.90;;;;;;4955508;28;20047;-74
2023/01/04 04:31:37;;;;;;;3.80;1.45;;;-1.50;99.90;;;;;;4954212;28;20048;-65
2023/01/04 04:34:05;;;;;;;1.80;1.38;;;-1.50;99.90;;;;;;4955273;28;20078;-69
2023/01/04 04:36:32;;;;;;;2.95;1.05;;;-1.60;99.90;;;;;;4956529;28;20058;-66
2023/01/04 04:38:58;;;;;;;1.17;1.08;;;-1.60;99.90;;;;;;4955074;28;20833;-66
2023/01/04 04:41:38;;;;;;;1.08;0.98;;;-1.60;99.90;;;;;;4958178;28;20426;-64
2023/01/04 04:44:26;;;;;;;2.45;1.02;;;-1.60;99.90;;;;;;4955544;28;20046;-68
2023/01/04 04:46:53;;;;;;;1.23;1.13;;;-1.70;99.90;;;;;;4955087;28;20129;-68
2023/01/04 04:49:19;;;;;;;1.40;0.88;;;-1.70;99.90;;;;;;4953712;28;20486;-69
2023/01/04 04:51:46;;;;;;;2.97;1.90;;;-1.70;99.90;;;;;;4957663;28;20134;-64
2023/01/04 04:54:16;;;;;;;0.93;0.90;;;-1.80;99.90;;;;;;4958031;28;20134;-64
2023/01/04 04:56:43;;;;;;;1.33;0.90;;;-1.80;99.90;;;;;;4963335;28;20057;-65
2023/01/04 04:59:10;;;;;;;1.73;1.15;;;-1.80;99.90;;;;;;4957031;28;20046;-64
2023/01/04 05:01:37;;;;;;;0.75;0.75;;;-1.80;99.90;;;;;;4948488;28;20043;-67
2023/01/04 05:04:04;;;;;;;4.95;1.60;;;-1.80;99.90;;;;;;4946468;28;20047;-70
2023/01/04 05:06:31;;;;;;;7.40;1.60;;;-1.80;99.90;;;;;;4952502;28;20546;-66
2023/01/04 05:08:58;;;;;;;6.93;1.48;;;-1.80;99.90;;;;;;4942019;28;20512;-71
2023/01/04 05:14:10;;;;;;;2.03;1.55;;;-1.90;99.90;;;;;;4943173;28;20075;-68
2023/01/04 05:16:37;;;;;;;6.05;2.13;;;-1.90;99.90;;;;;;4947087;28;20051;-67
2023/01/04 05:19:04;;;;;;;5.43;2.83;;;-1.90;99.90;;;;;;4941494;28;20055;-66
2023/01/04 05:21:31;;;;;;;2.40;2.13;;;-1.90;99.90;;;;;;4948951;28;20055;-67
2023/01/04 05:23:58;;;;;;;2.42;2.22;;;-2.00;99.90;;;;;;4960261;28;20090;-65
2023/01/04 05:26:25;;;;;;;3.83;2.13;;;-2.00;99.90;;;;;;4949950;28;20047;-67
2023/01/04 05:28:52;;;;;;;4.13;2.42;;;-2.00;99.90;;;;;;4964309;28;20141;-70
2023/01/04 05:31:20;;;;;;;3.25;2.95;;;-2.00;99.90;;;;;;4956388;28;20145;-71
2023/01/04 05:33:47;;;;;;;7.28;2.58;;;-1.90;99.90;;;;;;4960515;28;20051;-67
2023/01/04 05:36:14;;;;;;;2.97;2.60;;;-1.90;99.90;;;;;;4954056;28;20044;-65
2023/01/04 05:38:41;;;;;;;3.85;3.20;;;-2.00;99.90;;;;;;4960350;28;20043;-67
2023/01/04 05:42:24;;;;;;;4.78;3.95;;;-2.00;99.90;;;;;;4958225;28;20162;-68
2023/01/04 05:43:55;;;;;;;7.40;3.47;;;-2.00;99.90;;;;;;4955098;28;20135;-65
2023/01/04 05:46:22;;;;;;;16.23;3.85;;;-2.00;99.90;;;;;;4970465;28;20600;-65
2023/01/04 05:48:49;;;;;;;18.65;3.80;;;-2.00;99.90;;;;;;4959325;28;20043;-67
2023/01/04 05:51:16;;;;;;;15.90;3.67;;;-2.00;99.90;;;;;;4955292;28;20051;-65
2023/01/04 05:53:43;;;;;;;6.55;4.00;;;-2.00;99.90;;;;;;4960727;28;20079;-64
2023/01/04 05:56:09;;;;;;;10.18;3.17;;;-2.00;99.90;;;;;;4959176;28;20075;-69
2023/01/04 05:58:36;;;;;;;9.15;3.83;;;-2.00;99.90;;;;;;4954022;28;20046;-65
2023/01/04 06:01:06;;;;;;;17.92;3.97;;;-2.00;99.90;;;;;;4952161;28;20877;-65
2023/01/04 06:03:33;;;;;;;11.23;3.53;;;-2.00;99.90;;;;;;4960374;28;20055;-64
2023/01/04 06:06:00;;;;;;;17.02;5.00;;;-2.00;99.90;;;;;;4958732;28;20058;-67
2023/01/04 06:08:27;;;;;;;4.60;3.55;;;-2.00;99.90;;;;;;4954370;28;20081;-64
2023/01/04 06:10:54;;;;;;;4.60;2.97;;;-2.00;99.90;;;;;;4958298;28;20061;-66
2023/01/04 06:13:21;;;;;;;5.40;2.72;;;-1.90;99.90;;;;;;4957870;28;20517;-71
2023/01/04 06:15:48;;;;;;;5.00;3.92;;;-1.90;99.90;;;;;;4952037;28;20055;-65
2023/01/04 06:18:15;;;;;;;6.47;3.42;;;-1.90;99.90;;;;;;4959892;28;20428;-65
2023/01/04 06:20:42;;;;;;;17.40;3.97;;;-1.90;99.90;;;;;;4963700;28;20833;-69
2023/01/04 06:23:09;;;;;;;9.60;4.88;;;-1.80;99.90;;;;;;4954929;28;20054;-64
2023/01/04 06:25:36;;;;;;;8.65;5.43;;;-1.80;99.90;;;;;;4954799;28;20050;-71
2023/01/04 06:28:03;;;;;;;7.38;5.20;;;-1.80;99.90;;;;;;4958612;28;20572;-65
2023/01/04 06:30:30;;;;;;;15.40;5.80;;;-1.80;99.90;;;;;;4965468;28;20146;-73
2023/01/04 06:32:57;;;;;;;11.18;5.50;;;-1.70;99.90;;;;;;4950700;28;20134;-66
2023/01/04 06:35:24;;;;;;;6.32;5.07;;;-1.70;99.90;;;;;;4957112;28;20496;-68
2023/01/04 06:37:51;;;;;;;25.60;5.93;;;-1.70;99.90;;;;;;4955445;28;20061;-69
2023/01/04 06:40:18;;;;;;;9.40;5.50;;;-1.70;99.90;;;;;;4956352;28;20122;-68
2023/01/04 06:42:45;;;;;;;8.77;5.88;;;-1.70;99.90;;;;;;4955149;28;20047;-73
2023/01/04 06:45:13;;;;;;;12.82;8.05;;;-1.60;99.90;;;;;;4953824;28;20284;-68
2023/01/04 06:47:40;;;;;;;20.90;5.00;;;-1.60;99.90;;;;;;4955546;28;20050;-65
2023/01/04 06:50:07;;;;;;;14.32;4.65;;;-1.60;99.90;;;;;;4953343;28;20063;-67
2023/01/04 06:52:35;;;;;;;13.52;4.03;;;-1.60;99.90;;;;;;4953154;28;20094;-66
2023/01/04 06:55:01;;;;;;;5.80;3.92;;;-1.60;99.90;;;;;;4949074;28;20053;-66
2023/01/04 06:57:29;;;;;;;6.95;3.60;;;-1.60;99.90;;;;;;4953414;28;20051;-65
2023/01/04 06:59:56;;;;;;;8.93;4.35;;;-1.60;99.90;;;;;;4950380;28;20413;-66
2023/01/04 07:02:24;;;;;;;7.03;4.47;;;-1.50;99.90;;;;;;4947608;28;20138;-66
2023/01/04 07:04:51;;;;;;;12.52;3.90;;;-1.50;99.90;;;;;;4954457;28;20057;-68
2023/01/04 07:07:18;;;;;;;14.45;4.45;;;-1.50;99.90;;;;;;4951989;28;20093;-69
2023/01/04 07:09:44;;;;;;;15.48;4.07;;;-1.50;99.90;;;;;;4952653;28;20120;-66
2023/01/04 07:12:11;;;;;;;26.60;5.13;;;-1.40;99.90;;;;;;4950833;28;20086;-69
2023/01/04 07:14:38;;;;;;;17.98;4.25;;;-1.40;99.90;;;;;;4952754;28;20066;-66
2023/01/04 07:17:05;;;;;;;12.85;4.53;;;-1.40;99.90;;;;;;4948463;28;20040;-64
2023/01/04 07:19:32;;;;;;;17.73;5.00;;;-1.30;99.90;;;;;;4949987;28;20064;-67
2023/01/04 07:22:00;;;;;;;21.17;4.97;;;-1.30;99.90;;;;;;4956609;28;20051;-68
2023/01/04 07:24:27;;;;;;;9.40;3.97;;;-1.30;99.90;;;;;;4948247;28;20485;-66
2023/01/04 07:26:58;;;;;;;6.90;3.80;;;-1.30;99.90;;;;;;4962642;28;20485;-71
2023/01/04 07:29:25;;;;;;;22.75;5.40;;;-1.30;99.90;;;;;;4947658;28;20055;-67
2023/01/04 07:31:52;;;;;;;10.45;4.40;;;-1.30;99.90;;;;;;4958898;28;20043;-64
2023/01/04 07:34:21;;;;;;;16.88;5.32;;;-1.20;99.90;;;;;;4953468;28;20051;-68
2023/01/04 07:36:48;;;;;;;9.93;4.00;;;-1.20;99.90;;;;;;4951996;28;20078;-65
2023/01/04 07:39:17;;;;;;;5.78;4.35;;;-1.10;99.90;;;;;;4960768;28;20539;-64
2023/01/04 07:41:45;;;;;;;10.10;5.05;;;-1.10;99.90;;;;;;4959960;28;20125;-64
2023/01/04 07:44:20;;;;;;;6.20;4.57;;;-1.10;99.90;;;;;;4953694;28;20054;-65
2023/01/04 07:46:47;;;;;;;7.35;3.75;;;-1.00;99.90;;;;;;4955070;28;20047;-72
2023/01/04 07:49:17;;;;;;;11.85;3.85;;;-1.00;99.90;;;;;;4959480;28;20051;-67
2023/01/04 07:51:46;;;;;;;7.82;4.15;;;-1.00;99.90;;;;;;4955253;28;20405;-67
2023/01/04 07:54:14;;;;;;;9.82;5.00;;;-0.90;99.90;;;;;;4959839;28;20434;-71
2023/01/04 07:56:41;;;;;;;6.32;4.05;;;-0.90;99.90;;;;;;4964790;28;20061;-68
2023/01/04 07:59:09;;;;;;;7.80;4.13;;;-0.90;99.90;;;;;;4951718;28;20114;-72
2023/01/04 08:01:37;;;;;;;19.75;5.50;;;-0.80;99.90;;;;;;4949835;28;20136;-68
2023/01/04 08:04:06;;;;;;;22.38;5.47;;;-0.80;99.90;;;;;;4951116;28;20064;-66
2023/01/04 08:06:35;;;;;;;13.43;3.65;;;-0.80;99.90;;;;;;4949003;28;20110;-67
2023/01/04 08:09:03;;;;;;;11.20;3.65;;;-0.80;99.90;;;;;;4953103;28;20085;-67
2023/01/04 08:11:30;;;;;;;11.50;4.10;;;-0.70;99.90;;;;;;4952559;28;20421;-68
2023/01/04 08:13:57;;;;;;;12.13;4.88;;;-0.70;99.90;;;;;;4948265;28;20049;-70
2023/01/04 08:16:27;;;;;;;14.23;3.95;;;-0.70;99.90;;;;;;4950573;28;20446;-68
2023/01/04 08:18:55;;;;;;;8.30;7.03;;;-0.60;99.90;;;;;;4951330;28;20051;-66
2023/01/04 08:21:24;;;;;;;11.02;4.72;;;-0.60;99.90;;;;;;4957338;28;20390;-68
2023/01/04 08:23:51;;;;;;;13.30;6.55;;;-0.60;99.90;;;;;;4955612;28;20134;-65
2023/01/04 08:26:20;;;;;;;6.93;5.15;;;-0.60;99.90;;;;;;4945315;28;20055;-68
2023/01/04 08:28:48;;;;;;;12.88;6.55;;;-0.60;99.90;;;;;;4951452;28;20075;-67
2023/01/04 08:31:26;;;;;;;10.63;5.68;;;-0.60;99.90;;;;;;4950118;28;20525;-69
2023/01/04 08:33:54;;;;;;;10.05;5.07;;;-0.60;99.90;;;;;;4951196;28;20402;-65
2023/01/04 08:36:33;;;;;;;10.77;5.95;;;-0.60;99.90;;;;;;4950367;28;20090;-67
2023/01/04 08:39:03;;;;;;;13.32;6.00;;;-0.60;99.90;;;;;;4952649;28;20047;-69
2023/01/04 08:41:32;;;;;;;12.05;4.97;;;-0.60;99.90;;;;;;4949612;28;20043;-70
2023/01/04 08:44:20;;;;;;;14.40;4.82;;;-0.60;99.90;;;;;;4945286;28;20405;-65
2023/01/04 08:46:48;;;;;;;14.25;4.90;;;-0.60;99.90;;;;;;4951498;28;20462;-72
2023/01/04 08:49:16;;;;;;;8.23;4.72;;;-0.60;99.90;;;;;;4947224;28;20074;-67
2023/01/04 08:51:43;;;;;;;10.00;4.50;;;-0.60;99.90;;;;;;4950668;28;20064;-64
2023/01/04 08:54:11;;;;;;;7.88;4.03;;;-0.50;99.90;;;;;;4949809;28;20059;-64
2023/01/04 08:56:39;;;;;;;11.43;3.78;;;-0.50;99.90;;;;;;4947935;28;20051;-67
2023/01/04 08:59:06;;;;;;;13.60;4.45;;;-0.40;99.90;;;;;;4947307;28;20058;-67
2023/01/04 09:01:34;;;;;;;12.38;4.55;;;-0.40;99.90;;;;;;4958646;28;20065;-69
2023/01/04 09:04:02;;;;;;;7.65;4.68;;;-0.40;99.90;;;;;;4955569;28;20595;-65
2023/01/04 09:06:29;;;;;;;5.95;3.83;;;-0.40;99.90;;;;;;4949915;28;20057;-67
2023/01/04 09:08:56;;;;;;;10.18;4.10;;;-0.40;99.90;;;;;;4955764;28;20066;-67
2023/01/04 09:11:24;;;;;;;15.55;3.78;;;-0.30;99.90;;;;;;4952022;28;20043;-66
2023/01/04 09:13:59;;;;;;;9.88;4.07;;;-0.30;99.90;;;;;;4953698;28;20382;-65
2023/01/04 09:16:34;;;;;;;9.00;3.45;;;-0.30;99.90;;;;;;4951820;28;20625;-67
2023/01/04 09:19:02;;;;;;;12.40;3.95;;;-0.20;99.90;;;;;;4958043;28;20161;-64
2023/01/04 09:21:29;;;;;;;15.95;4.35;;;-0.20;99.90;;;;;;4950627;28;20055;-70
2023/01/04 09:23:57;;;;;;;9.48;4.28;;;-0.10;99.90;;;;;;4958081;28;20297;-64
2023/01/04 09:26:25;;;;;;;8.25;4.47;;;-0.10;99.90;;;;;;4958913;28;20054;-65
2023/01/04 09:28:53;;;;;;;7.30;4.05;;;0.00;99.90;;;;;;4955279;28;20066;-69
2023/01/04 09:31:23;;;;;;;14.50;4.25;;;0.00;99.90;;;;;;4958424;28;20054;-66
2023/01/04 09:33:51;;;;;;;8.30;3.97;;;0.10;99.90;;;;;;4957411;28;20493;-66
2023/01/04 09:36:38;;;;;;;15.85;4.30;;;0.10;99.90;;;;;;4950053;28;20601;-64
2023/01/04 09:39:05;;;;;;;9.38;3.95;;;0.10;99.90;;;;;;4953745;28;20047;-67
2023/01/04 09:41:57;;;;;;;7.35;3.58;;;0.10;99.90;;;;;;4955049;28;20047;-65
2023/01/04 09:44:44;;;;;;;6.60;3.25;;;0.10;99.90;;;;;;4956559;28;20055;-65
2023/01/04 09:47:42;;;;;;;5.65;3.03;;;0.20;99.90;;;;;;4956968;28;20059;-65
2023/01/04 09:50:19;;;;;;;6.68;4.47;;;0.30;99.90;;;;;;4953557;28;20055;-65
2023/01/04 09:53:10;;;;;;;3.30;2.45;;;0.30;99.90;;;;;;4952845;28;20409;-66
2023/01/04 09:55:41;;;;;;;6.13;3.17;;;0.30;99.90;;;;;;4952022;28;20074;-65
2023/01/04 09:58:13;;;;;;;5.78;2.80;;;0.40;99.90;;;;;;4955337;28;20443;-65
2023/01/04 10:00:45;;;;;;;5.55;2.65;;;0.40;99.90;;;;;;4954593;28;20055;-66
2023/01/04 10:03:27;;;;;;;10.93;3.35;;;0.40;99.90;;;;;;4955527;28;20675;-67
2023/01/04 10:05:55;;;;;;;4.15;3.50;;;0.40;99.90;;;;;;4956418;28;20094;-67
2023/01/04 10:08:22;;;;;;;5.05;3.70;;;0.40;99.90;;;;;;4950533;28;20050;-66
2023/01/04 10:11:17;;;;;;;3.25;2.95;;;0.40;99.90;;;;;;4959055;28;20046;-67
2023/01/04 10:14:10;;;;;;;3.70;2.92;;;0.40;99.90;;;;;;4956098;28;20070;-66
2023/01/04 10:17:01;;;;;;;5.63;4.43;;;0.40;99.90;;;;;;4952831;28;20073;-64
2023/01/04 10:19:57;;;;;;;4.22;2.80;;;0.40;99.90;;;;;;4953032;28;20050;-65
2023/01/04 10:23:02;;;;;;;3.88;2.85;;;0.50;99.90;;;;;;4951264;28;20039;-64
2023/01/04 10:25:46;;;;;;;2.95;2.65;;;0.50;99.90;;;;;;4958222;28;20074;-64
2023/01/04 10:28:13;;;;;;;2.83;2.53;;;0.60;99.90;;;;;;4954409;28;20493;-66
2023/01/04 10:30:54;;;;;;;4.72;2.70;;;0.60;99.90;;;;;;4954342;28;20047;-64
2023/01/04 10:33:33;;;;;;;4.88;2.33;;;0.60;99.90;;;;;;4957625;28;20051;-70
2023/01/04 10:36:01;;;;;;;4.60;3.50;;;0.60;99.90;;;;;;4958235;28;20420;-66
2023/01/04 10:38:35;;;;;;;3.17;2.65;;;0.60;99.90;;;;;;4956100;28;20134;-67
2023/01/04 10:41:09;;;;;;;3.40;2.92;;;0.60;99.90;;;;;;4957112;28;20154;-67
2023/01/04 10:43:55;;;;;;;8.07;2.80;;;0.70;99.90;;;;;;4952542;28;20397;-66
2023/01/04 10:46:49;;;;;;;10.57;2.75;;;0.70;99.90;;;;;;4940951;28;20046;-68
2023/01/04 10:49:34;;;;;;;4.55;3.55;;;0.70;99.90;;;;;;4959461;28;20047;-64
2023/01/04 10:52:19;;;;;;;3.53;1.95;;;0.80;99.90;;;;;;4954977;28;20054;-66
2023/01/04 10:55:08;;;;;;;2.97;2.20;;;0.80;99.90;;;;;;4955040;28;20078;-65
2023/01/04 10:57:53;;;;;;;2.92;2.15;;;0.80;99.90;;;;;;4951446;28;20535;-65
2023/01/04 11:00:32;;;;;;;3.83;2.85;;;0.90;99.90;;;;;;4953404;28;20063;-69
2023/01/04 11:03:23;;;;;;;3.53;2.80;;;0.90;99.90;;;;;;4962047;28;20065;-67
2023/01/04 11:06:08;;;;;;;2.90;2.15;;;0.90;99.90;;;;;;4959279;28;20047;-65
2023/01/04 11:09:03;;;;;;;2.17;1.80;;;1.00;99.90;;;;;;4959502;28;20081;-67
2023/01/04 11:11:45;;;;;;;2.38;2.15;;;1.00;99.90;;;;;;4968846;28;20485;-66
2023/01/04 11:14:13;;;;;;;2.42;1.70;;;1.00;99.90;;;;;;4953791;28;20079;-65
2023/01/04 11:16:45;;;;;;;3.17;2.83;;;1.00;99.90;;;;;;4957485;28;20046;-65
2023/01/04 11:19:12;;;;;;;2.10;1.67;;;1.10;99.90;;;;;;4956789;28;20058;-68
2023/01/04 11:21:46;;;;;;;2.25;1.73;;;1.10;99.90;;;;;;4961665;28;20516;-66
2023/01/04 11:24:15;;;;;;;3.60;2.25;;;1.10;99.90;;;;;;4959570;28;20509;-64
2023/01/04 11:27:06;;;;;;;2.22;1.27;;;1.10;99.90;;;;;;4961862;28;20507;-66
2023/01/04 11:29:40;;;;;;;2.67;2.10;;;1.10;99.90;;;;;;4959601;28;20579;-65
2023/01/04 11:32:26;;;;;;;3.92;2.58;;;1.10;99.90;;;;;;4956889;28;20221;-65
2023/01/04 11:34:56;;;;;;;3.40;1.98;;;1.10;99.90;;;;;;4955469;28;20054;-65
2023/01/04 11:37:29;;;;;;;2.47;2.22;;;1.20;99.90;;;;;;4956490;28;20110;-68
2023/01/04 11:40:17;;;;;;;4.22;2.35;;;1.20;99.90;;;;;;4963398;28;20532;-65
2023/01/04 11:42:46;;;;;;;4.75;1.98;;;1.20;99.90;;;;;;4955590;28;20053;-65
2023/01/04 11:45:27;;;;;;;1.67;1.58;;;1.30;99.90;;;;;;4960706;28;20059;-64
2023/01/04 11:47:56;;;;;;;2.67;1.70;;;1.30;99.90;;;;;;4960643;28;20465;-65
2023/01/04 11:50:46;;;;;;;2.45;2.00;;;1.30;99.90;;;;;;4955852;28;20458;-66
2023/01/04 11:53:27;;;;;;;3.75;1.52;;;1.30;99.90;;;;;;4959054;28;20134;-65
2023/01/04 11:56:14;;;;;;;2.15;1.95;;;1.30;99.90;;;;;;4956578;28;20050;-66
2023/01/04 11:58:42;;;;;;;1.60;1.38;;;1.30;99.90;;;;;;4952743;28;20487;-65
2023/01/04 12:01:22;;;;;;;2.65;1.60;;;1.30;99.90;;;;;;4960129;28;20357;-65
2023/01/04 12:03:49;;;;;;;3.92;1.55;;;1.40;99.90;;;;;;4959222;28;20082;-66
2023/01/04 12:06:29;;;;;;;1.65;1.23;;;1.40;99.90;;;;;;4955798;28;20058;-64
2023/01/04 12:08:56;;;;;;;3.88;1.83;;;1.40;99.90;;;;;;4956815;28;20058;-65
2023/01/04 12:11:33;;;;;;;2.60;1.77;;;1.40;99.90;;;;;;4961345;28;20057;-66
2023/01/04 12:14:01;;;;;;;3.35;1.65;;;1.40;99.90;;;;;;4956660;28;20070;-64
2023/01/04 12:16:47;;;;;;;3.47;1.33;;;1.40;99.90;;;;;;4952791;28;20047;-65
2023/01/04 12:19:16;;;;;;;2.80;1.90;;;1.50;99.90;;;;;;4944337;28;20059;-65
2023/01/04 12:21:47;;;;;;;9.80;2.20;;;1.50;99.90;;;;;;4950486;28;20142;-66
2023/01/04 12:24:37;;;;;;;7.88;2.22;;;1.50;99.90;;;;;;4954499;28;20501;-65
2023/01/04 12:27:12;;;;;;;7.00;2.27;;;1.50;99.90;;;;;;4953449;28;20055;-68
2023/01/04 12:30:00;;;;;;;2.28;1.67;;;1.60;99.90;;;;;;4955875;28;20051;-70
2023/01/04 12:32:27;;;;;;;4.35;1.73;;;1.60;99.90;;;;;;4951357;28;20129;-66
2023/01/04 12:34:55;;;;;;;1.77;1.27;;;1.60;99.90;;;;;;4955993;28;20057;-69
2023/01/04 12:37:41;;;;;;;5.05;2.03;;;1.60;99.90;;;;;;4954327;28;20086;-69
2023/01/04 12:40:43;;;;;;;2.55;1.48;;;1.60;99.90;;;;;;4956058;28;20083;-68
2023/01/04 12:43:16;;;;;;;3.45;1.77;;;1.60;99.90;;;;;;4928747;29;20059;-66
2023/01/04 12:45:44;;;;;;;2.85;1.23;;;1.60;99.90;;;;;;4945710;28;20445;-66
2023/01/04 12:51:20;;;;;;;2.97;1.27;;;1.70;99.90;;;;;;4950122;28;20515;-65
2023/01/04 12:54:23;;;;;;;1.30;1.20;;;1.70;99.90;;;;;;4951322;28;20047;-66
2023/01/04 12:57:15;;;;;;;3.25;1.10;;;1.70;99.90;;;;;;4955673;28;20535;-68
2023/01/04 13:00:11;;;;;;;1.83;1.15;;;1.70;99.90;;;;;;4956143;28;20352;-66
2023/01/04 13:02:51;;;;;;;2.30;0.80;;;1.70;99.90;;;;;;4952661;28;20050;-65
2023/01/04 13:05:18;;;;;;;;;;;1.70;99.90;;;;;;4946545;28;20988;-68
2023/01/04 13:08:11;;;;;;;1.90;1.00;;;1.70;99.90;;;;;;4950760;28;19926;-64
2023/01/04 13:10:50;;;;;;;2.05;1.23;;;1.70;99.90;;;;;;4948892;28;20660;-72
2023/01/04 13:13:44;;;;;;;1.60;1.10;;;1.80;99.90;;;;;;4951648;28;20058;-65
2023/01/04 13:16:29;;;;;;;2.55;1.23;;;1.70;99.90;;;;;;4948750;28;20062;-66
2023/01/04 13:18:58;;;;;;;1.40;1.00;;;1.70;99.90;;;;;;4952338;28;20174;-65
2023/01/04 13:21:40;;;;;;;3.25;1.45;;;1.70;99.90;;;;;;4951725;28;20133;-66
2023/01/04 13:24:23;;;;;;;1.40;0.45;;;1.70;99.90;;;;;;4953912;28;20047;-66
2023/01/04 13:26:51;;;;;;;0.93;0.68;;;1.70;99.90;;;;;;4951564;28;20065;-68
2023/01/04 13:29:30;;;;;;;1.88;0.50;;;1.60;99.90;;;;;;4954137;28;20046;-70
2023/01/04 13:32:03;;;;;;;0.73;0.57;;;1.60;99.90;;;;;;4954668;28;20050;-65
2023/01/04 13:34:35;;;;;;;2.60;0.50;;;1.60;99.90;;;;;;4953032;28;20327;-66
2023/01/04 13:37:16;;;;;;;1.40;0.35;;;1.60;99.90;;;;;;4954009;28;20699;-69
2023/01/04 13:39:49;;;;;;;1.05;0.57;;;1.50;99.90;;;;;;4953754;28;20039;-67
2023/01/04 13:42:29;;;;;;;1.77;0.40;;;1.50;99.90;;;;;;4956667;28;20079;-71
2023/01/04 13:45:11;;;;;;;2.55;0.60;;;1.50;99.90;;;;;;4953690;28;20051;-67
2023/01/04 13:47:50;;;;;;;1.65;0.60;;;1.50;99.90;;;;;;4953194;28;20066;-67
2023/01/04 13:50:30;;;;;;;0.98;0.40;;;1.50;99.90;;;;;;4953436;28;20058;-68
2023/01/04 13:52:57;;;;;;;0.63;0.30;;;1.50;99.90;;;;;;4953785;28;20055;-68
2023/01/04 13:55:36;;;;;;;0.43;0.40;;;1.40;99.90;;;;;;4955498;28;20098;-67
2023/01/04 13:58:17;;;;;;;0.40;0.28;;;1.40;99.90;;;;;;4953604;28;20057;-69
2023/01/04 14:00:47;;;;;;;0.70;0.50;;;1.30;99.90;;;;;;4952236;28;20479;-68
2023/01/04 14:03:24;;;;;;;;;;;1.30;99.90;;;;;;4958589;28;20114;-73
2023/01/04 14:05:54;;;;;;;0.98;0.45;;;1.30;99.90;;;;;;4950314;28;19926;-67
2023/01/04 14:08:35;;;;;;;0.77;0.50;;;1.30;99.90;;;;;;4958092;28;20050;-73
2023/01/04 14:14:25;;;;;;;0.57;0.57;;;1.30;99.90;;;;;;4952716;28;20074;-69